sensor_id;sensor_type;location;lat;lon;timestamp;P1;durP1;ratioP1;P2;durP2;ratioP2
23682;SDS011;24897;53.514;10.482;2023-04-01T00:01:33;73.03;;;52.47;;
23682;SDS011;24897;53.514;10.482;2023-04-01T00:04:17;70.13;;;52.53;;
23682;SDS011;24897;53.514;10.482;2023-04-01T00:07:01;63.87;;;50.23;;
23682;SDS011;24897;53.514;10.482;2023-04-01T00:09:45;71.27;;;51.47;;
23682;SDS011;24897;53.514;10.482;2023-04-01T00:12:30;74.57;;;52.53;;
23682;SDS011;24897;53.514;10.482;2023-04-01T00:15:14;76.67;;;55.23;;
23682;SDS011;24897;53.514;10.482;2023-04-01T00:17:59;70.07;;;53.37;;
23682;SDS011;24897;53.514;10.482;2023-04-01T00:20:45;85.67;;;53.93;;
23682;SDS011;24897;53.514;10.482;2023-04-01T00:23:30;69.90;;;53.17;;
23682;SDS011;24897;53.514;10.482;2023-04-01T00:26:15;96.37;;;57.17;;
23682;SDS011;24897;53.514;10.482;2023-04-01T00:29:02;86.53;;;56.40;;
23682;SDS011;24897;53.514;10.482;2023-04-01T00:31:46;66.70;;;50.63;;
23682;SDS011;24897;53.514;10.482;2023-04-01T00:34:31;80.37;;;54.97;;
23682;SDS011;24897;53.514;10.482;2023-04-01T00:37:16;79.07;;;55.23;;
23682;SDS011;24897;53.514;10.482;2023-04-01T00:40:00;78.33;;;55.70;;
23682;SDS011;24897;53.514;10.482;2023-04-01T00:42:45;72.97;;;55.97;;
23682;SDS011;24897;53.514;10.482;2023-04-01T00:45:32;81.87;;;63.03;;
23682;SDS011;24897;53.514;10.482;2023-04-01T00:48:22;76.27;;;61.60;;
23682;SDS011;24897;53.514;10.482;2023-04-01T00:51:17;95.13;;;63.90;;
23682;SDS011;24897;53.514;10.482;2023-04-01T00:54:05;73.87;;;60.30;;
23682;SDS011;24897;53.514;10.482;2023-04-01T00:56:54;70.63;;;60.00;;
23682;SDS011;24897;53.514;10.482;2023-04-01T00:59:44;75.80;;;60.87;;
23682;SDS011;24897;53.514;10.482;2023-04-01T01:02:31;72.70;;;59.83;;
23682;SDS011;24897;53.514;10.482;2023-04-01T01:05:16;81.13;;;62.20;;
23682;SDS011;24897;53.514;10.482;2023-04-01T01:10:54;85.63;;;66.03;;
23682;SDS011;24897;53.514;10.482;2023-04-01T01:13:58;79.47;;;62.17;;
23682;SDS011;24897;53.514;10.482;2023-04-01T01:26:33;93.93;;;70.63;;
23682;SDS011;24897;53.514;10.482;2023-04-01T01:32:59;93.90;;;69.20;;
23682;SDS011;24897;53.514;10.482;2023-04-01T01:35:56;99.60;;;72.53;;
23682;SDS011;24897;53.514;10.482;2023-04-01T01:38:43;103.07;;;72.20;;
23682;SDS011;24897;53.514;10.482;2023-04-01T01:41:29;100.53;;;71.23;;
23682;SDS011;24897;53.514;10.482;2023-04-01T01:44:15;117.13;;;75.63;;
23682;SDS011;24897;53.514;10.482;2023-04-01T01:47:01;97.80;;;69.47;;
23682;SDS011;24897;53.514;10.482;2023-04-01T01:49:46;101.77;;;72.20;;
23682;SDS011;24897;53.514;10.482;2023-04-01T01:52:30;108.73;;;74.37;;
23682;SDS011;24897;53.514;10.482;2023-04-01T01:55:31;111.43;;;73.90;;
23682;SDS011;24897;53.514;10.482;2023-04-01T02:01:10;95.47;;;67.70;;
23682;SDS011;24897;53.514;10.482;2023-04-01T02:03:58;94.83;;;69.73;;
23682;SDS011;24897;53.514;10.482;2023-04-01T02:06:49;101.23;;;71.93;;
23682;SDS011;24897;53.514;10.482;2023-04-01T02:09:39;111.90;;;75.50;;
23682;SDS011;24897;53.514;10.482;2023-04-01T02:12:24;101.03;;;76.80;;
23682;SDS011;24897;53.514;10.482;2023-04-01T02:15:09;106.90;;;78.20;;
23682;SDS011;24897;53.514;10.482;2023-04-01T02:17:56;108.23;;;76.23;;
23682;SDS011;24897;53.514;10.482;2023-04-01T02:20:41;103.10;;;77.67;;
23682;SDS011;24897;53.514;10.482;2023-04-01T02:23:28;119.13;;;80.57;;
23682;SDS011;24897;53.514;10.482;2023-04-01T02:26:13;123.57;;;81.50;;
23682;SDS011;24897;53.514;10.482;2023-04-01T02:28:58;105.93;;;78.57;;
23682;SDS011;24897;53.514;10.482;2023-04-01T02:31:44;120.00;;;80.47;;
23682;SDS011;24897;53.514;10.482;2023-04-01T02:34:29;110.10;;;79.63;;
23682;SDS011;24897;53.514;10.482;2023-04-01T02:37:14;132.90;;;81.07;;
23682;SDS011;24897;53.514;10.482;2023-04-01T02:40:00;121.03;;;84.50;;
23682;SDS011;24897;53.514;10.482;2023-04-01T02:42:45;102.67;;;73.80;;
23682;SDS011;24897;53.514;10.482;2023-04-01T02:45:29;103.33;;;71.80;;
23682;SDS011;24897;53.514;10.482;2023-04-01T02:48:14;107.17;;;72.10;;
23682;SDS011;24897;53.514;10.482;2023-04-01T02:50:58;98.67;;;70.30;;
23682;SDS011;24897;53.514;10.482;2023-04-01T02:53:42;111.87;;;75.60;;
23682;SDS011;24897;53.514;10.482;2023-04-01T02:56:26;102.90;;;71.47;;
23682;SDS011;24897;53.514;10.482;2023-04-01T02:59:11;90.77;;;69.90;;
23682;SDS011;24897;53.514;10.482;2023-04-01T03:01:55;108.10;;;74.90;;
23682;SDS011;24897;53.514;10.482;2023-04-01T03:04:39;102.30;;;70.30;;
23682;SDS011;24897;53.514;10.482;2023-04-01T03:07:24;102.50;;;74.00;;
23682;SDS011;24897;53.514;10.482;2023-04-01T03:10:09;102.43;;;68.90;;
23682;SDS011;24897;53.514;10.482;2023-04-01T03:12:54;106.63;;;72.13;;
23682;SDS011;24897;53.514;10.482;2023-04-01T03:15:38;98.53;;;70.37;;
23682;SDS011;24897;53.514;10.482;2023-04-01T03:18:22;100.63;;;71.77;;
23682;SDS011;24897;53.514;10.482;2023-04-01T03:21:19;90.27;;;65.73;;
23682;SDS011;24897;53.514;10.482;2023-04-01T03:24:05;101.23;;;67.07;;
23682;SDS011;24897;53.514;10.482;2023-04-01T03:26:51;99.57;;;66.57;;
23682;SDS011;24897;53.514;10.482;2023-04-01T03:29:35;96.50;;;66.70;;
23682;SDS011;24897;53.514;10.482;2023-04-01T03:32:19;94.07;;;64.10;;
23682;SDS011;24897;53.514;10.482;2023-04-01T03:35:03;93.97;;;64.37;;
23682;SDS011;24897;53.514;10.482;2023-04-01T03:37:52;87.00;;;63.77;;
23682;SDS011;24897;53.514;10.482;2023-04-01T03:40:36;98.87;;;64.27;;
23682;SDS011;24897;53.514;10.482;2023-04-01T03:43:22;104.33;;;69.43;;
23682;SDS011;24897;53.514;10.482;2023-04-01T03:46:06;101.83;;;68.47;;
23682;SDS011;24897;53.514;10.482;2023-04-01T03:48:50;93.40;;;66.63;;
23682;SDS011;24897;53.514;10.482;2023-04-01T03:51:34;107.87;;;67.97;;
23682;SDS011;24897;53.514;10.482;2023-04-01T03:54:18;120.73;;;77.30;;
23682;SDS011;24897;53.514;10.482;2023-04-01T03:57:03;105.60;;;72.73;;
23682;SDS011;24897;53.514;10.482;2023-04-01T03:59:48;108.53;;;77.93;;
23682;SDS011;24897;53.514;10.482;2023-04-01T04:02:32;108.13;;;86.47;;
23682;SDS011;24897;53.514;10.482;2023-04-01T04:05:16;100.17;;;76.10;;
23682;SDS011;24897;53.514;10.482;2023-04-01T04:08:01;95.50;;;66.83;;
23682;SDS011;24897;53.514;10.482;2023-04-01T04:10:45;97.90;;;75.20;;
23682;SDS011;24897;53.514;10.482;2023-04-01T04:13:29;102.80;;;76.90;;
23682;SDS011;24897;53.514;10.482;2023-04-01T04:16:14;92.33;;;67.13;;
23682;SDS011;24897;53.514;10.482;2023-04-01T04:19:00;102.00;;;68.73;;
23682;SDS011;24897;53.514;10.482;2023-04-01T04:21:44;96.80;;;65.37;;
23682;SDS011;24897;53.514;10.482;2023-04-01T04:24:28;106.33;;;65.30;;
23682;SDS011;24897;53.514;10.482;2023-04-01T04:27:13;109.63;;;75.17;;
23682;SDS011;24897;53.514;10.482;2023-04-01T04:29:57;107.80;;;68.40;;
23682;SDS011;24897;53.514;10.482;2023-04-01T04:32:41;99.77;;;63.77;;
23682;SDS011;24897;53.514;10.482;2023-04-01T04:35:25;103.67;;;64.40;;
23682;SDS011;24897;53.514;10.482;2023-04-01T04:38:09;99.27;;;67.03;;
23682;SDS011;24897;53.514;10.482;2023-04-01T04:40:54;107.23;;;73.27;;
23682;SDS011;24897;53.514;10.482;2023-04-01T04:43:39;99.00;;;60.70;;
23682;SDS011;24897;53.514;10.482;2023-04-01T04:46:24;116.97;;;74.93;;
23682;SDS011;24897;53.514;10.482;2023-04-01T04:49:08;89.60;;;58.87;;
23682;SDS011;24897;53.514;10.482;2023-04-01T04:51:53;98.97;;;59.83;;
23682;SDS011;24897;53.514;10.482;2023-04-01T04:54:37;101.73;;;60.60;;
23682;SDS011;24897;53.514;10.482;2023-04-01T04:57:21;103.27;;;61.63;;
23682;SDS011;24897;53.514;10.482;2023-04-01T05:00:05;106.10;;;57.63;;
23682;SDS011;24897;53.514;10.482;2023-04-01T05:02:51;67.13;;;48.40;;
23682;SDS011;24897;53.514;10.482;2023-04-01T05:05:35;61.87;;;50.17;;
23682;SDS011;24897;53.514;10.482;2023-04-01T05:08:19;51.93;;;43.07;;
23682;SDS011;24897;53.514;10.482;2023-04-01T05:11:06;55.57;;;46.10;;
23682;SDS011;24897;53.514;10.482;2023-04-01T05:13:53;57.67;;;48.30;;
23682;SDS011;24897;53.514;10.482;2023-04-01T05:16:37;64.47;;;54.63;;
23682;SDS011;24897;53.514;10.482;2023-04-01T05:19:21;62.93;;;54.90;;
23682;SDS011;24897;53.514;10.482;2023-04-01T05:22:05;64.77;;;56.37;;
23682;SDS011;24897;53.514;10.482;2023-04-01T05:24:50;73.40;;;65.30;;
23682;SDS011;24897;53.514;10.482;2023-04-01T05:27:37;70.40;;;58.83;;
23682;SDS011;24897;53.514;10.482;2023-04-01T05:30:22;103.83;;;90.23;;
23682;SDS011;24897;53.514;10.482;2023-04-01T05:33:09;62.80;;;50.53;;
23682;SDS011;24897;53.514;10.482;2023-04-01T05:35:55;64.63;;;52.43;;
23682;SDS011;24897;53.514;10.482;2023-04-01T05:38:40;63.87;;;49.87;;
23682;SDS011;24897;53.514;10.482;2023-04-01T05:41:26;61.53;;;47.33;;
23682;SDS011;24897;53.514;10.482;2023-04-01T05:44:11;60.60;;;47.07;;
23682;SDS011;24897;53.514;10.482;2023-04-01T05:46:56;61.87;;;44.93;;
23682;SDS011;24897;53.514;10.482;2023-04-01T05:49:40;58.50;;;45.83;;
23682;SDS011;24897;53.514;10.482;2023-04-01T05:52:24;65.00;;;50.83;;
23682;SDS011;24897;53.514;10.482;2023-04-01T05:55:09;67.30;;;53.13;;
23682;SDS011;24897;53.514;10.482;2023-04-01T05:57:53;62.03;;;49.70;;
23682;SDS011;24897;53.514;10.482;2023-04-01T06:00:37;62.47;;;50.90;;
23682;SDS011;24897;53.514;10.482;2023-04-01T06:03:21;62.57;;;50.90;;
23682;SDS011;24897;53.514;10.482;2023-04-01T06:06:08;66.20;;;52.40;;
23682;SDS011;24897;53.514;10.482;2023-04-01T06:09:07;68.10;;;56.70;;
23682;SDS011;24897;53.514;10.482;2023-04-01T06:12:32;67.30;;;56.47;;
23682;SDS011;24897;53.514;10.482;2023-04-01T06:19:06;71.57;;;59.73;;
23682;SDS011;24897;53.514;10.482;2023-04-01T06:30:40;93.30;;;83.20;;
23682;SDS011;24897;53.514;10.482;2023-04-01T06:33:34;90.90;;;81.13;;
23682;SDS011;24897;53.514;10.482;2023-04-01T06:36:39;91.37;;;81.67;;
23682;SDS011;24897;53.514;10.482;2023-04-01T06:42:35;86.77;;;76.77;;
23682;SDS011;24897;53.514;10.482;2023-04-01T06:45:41;86.67;;;74.80;;
23682;SDS011;24897;53.514;10.482;2023-04-01T06:57:05;72.83;;;61.87;;
23682;SDS011;24897;53.514;10.482;2023-04-01T07:00:04;72.80;;;61.63;;
23682;SDS011;24897;53.514;10.482;2023-04-01T07:06:27;70.43;;;60.03;;
23682;SDS011;24897;53.514;10.482;2023-04-01T07:09:16;72.43;;;60.80;;
23682;SDS011;24897;53.514;10.482;2023-04-01T07:12:21;72.00;;;59.47;;
23682;SDS011;24897;53.514;10.482;2023-04-01T07:18:09;70.63;;;59.13;;
23682;SDS011;24897;53.514;10.482;2023-04-01T07:21:08;68.97;;;57.80;;
23682;SDS011;24897;53.514;10.482;2023-04-01T07:24:03;68.13;;;54.80;;
23682;SDS011;24897;53.514;10.482;2023-04-01T07:26:52;67.50;;;54.43;;
23682;SDS011;24897;53.514;10.482;2023-04-01T07:29:39;67.30;;;55.93;;
23682;SDS011;24897;53.514;10.482;2023-04-01T07:32:30;63.97;;;52.83;;
23682;SDS011;24897;53.514;10.482;2023-04-01T07:35:43;67.37;;;54.57;;
23682;SDS011;24897;53.514;10.482;2023-04-01T07:50:28;68.30;;;57.53;;
23682;SDS011;24897;53.514;10.482;2023-04-01T07:56:22;62.43;;;52.07;;
23682;SDS011;24897;53.514;10.482;2023-04-01T07:59:17;65.17;;;53.33;;
23682;SDS011;24897;53.514;10.482;2023-04-01T08:05:28;68.80;;;57.33;;
23682;SDS011;24897;53.514;10.482;2023-04-01T08:08:28;67.33;;;54.20;;
23682;SDS011;24897;53.514;10.482;2023-04-01T08:22:53;194.33;;;175.57;;
23682;SDS011;24897;53.514;10.482;2023-04-01T08:25:46;193.57;;;174.80;;
23682;SDS011;24897;53.514;10.482;2023-04-01T08:28:48;192.53;;;173.70;;
23682;SDS011;24897;53.514;10.482;2023-04-01T08:31:37;197.27;;;178.20;;
23682;SDS011;24897;53.514;10.482;2023-04-01T08:34:38;201.60;;;181.97;;
23682;SDS011;24897;53.514;10.482;2023-04-01T08:37:28;204.90;;;184.83;;
23682;SDS011;24897;53.514;10.482;2023-04-01T08:40:26;222.37;;;200.17;;
23682;SDS011;24897;53.514;10.482;2023-04-01T08:56:01;194.53;;;176.13;;
23682;SDS011;24897;53.514;10.482;2023-04-01T09:08:29;191.53;;;173.23;;
23682;SDS011;24897;53.514;10.482;2023-04-01T09:17:04;184.70;;;166.90;;
23682;SDS011;24897;53.514;10.482;2023-04-01T09:32:20;180.37;;;162.83;;
23682;SDS011;24897;53.514;10.482;2023-04-01T09:38:43;215.33;;;194.40;;
23682;SDS011;24897;53.514;10.482;2023-04-01T09:41:48;207.17;;;187.23;;
23682;SDS011;24897;53.514;10.482;2023-04-01T09:44:50;202.20;;;182.93;;
23682;SDS011;24897;53.514;10.482;2023-04-01T10:09:41;173.87;;;157.67;;
23682;SDS011;24897;53.514;10.482;2023-04-01T10:16:30;171.97;;;155.77;;
23682;SDS011;24897;53.514;10.482;2023-04-01T10:32:22;67.60;;;56.37;;
23682;SDS011;24897;53.514;10.482;2023-04-01T10:44:49;77.67;;;68.07;;
23682;SDS011;24897;53.514;10.482;2023-04-01T10:51:04;75.63;;;66.13;;
23682;SDS011;24897;53.514;10.482;2023-04-01T11:06:11;99.13;;;88.83;;
23682;SDS011;24897;53.514;10.482;2023-04-01T11:21:49;86.47;;;77.10;;
23682;SDS011;24897;53.514;10.482;2023-04-01T11:33:52;66.73;;;55.70;;
23682;SDS011;24897;53.514;10.482;2023-04-01T11:39:58;69.27;;;58.37;;
23682;SDS011;24897;53.514;10.482;2023-04-01T11:46:15;72.00;;;58.87;;
23682;SDS011;24897;53.514;10.482;2023-04-01T11:49:14;74.80;;;64.53;;
23682;SDS011;24897;53.514;10.482;2023-04-01T11:58:43;67.53;;;54.53;;
23682;SDS011;24897;53.514;10.482;2023-04-01T12:05:15;67.93;;;50.93;;
23682;SDS011;24897;53.514;10.482;2023-04-01T12:08:09;67.77;;;49.17;;
23682;SDS011;24897;53.514;10.482;2023-04-01T12:13:51;63.47;;;48.93;;
23682;SDS011;24897;53.514;10.482;2023-04-01T12:25:56;53.67;;;42.83;;
23682;SDS011;24897;53.514;10.482;2023-04-01T12:53:38;63.13;;;56.93;;
23682;SDS011;24897;53.514;10.482;2023-04-01T12:59:57;61.83;;;55.50;;
23682;SDS011;24897;53.514;10.482;2023-04-01T13:06:31;65.73;;;59.07;;
23682;SDS011;24897;53.514;10.482;2023-04-01T13:18:29;73.23;;;65.57;;
23682;SDS011;24897;53.514;10.482;2023-04-01T13:22:35;78.53;;;70.57;;
23682;SDS011;24897;53.514;10.482;2023-04-01T13:27:56;76.80;;;69.20;;
23682;SDS011;24897;53.514;10.482;2023-04-01T13:45:50;81.03;;;73.10;;
23682;SDS011;24897;53.514;10.482;2023-04-01T13:55:06;76.10;;;68.53;;
23682;SDS011;24897;53.514;10.482;2023-04-01T13:58:15;75.83;;;68.23;;
23682;SDS011;24897;53.514;10.482;2023-04-01T14:01:28;74.30;;;66.73;;
23682;SDS011;24897;53.514;10.482;2023-04-01T14:07:37;75.63;;;67.77;;
23682;SDS011;24897;53.514;10.482;2023-04-01T14:13:23;72.70;;;65.10;;
23682;SDS011;24897;53.514;10.482;2023-04-01T14:47:04;66.87;;;60.00;;
23682;SDS011;24897;53.514;10.482;2023-04-01T14:52:57;64.80;;;58.30;;
23682;SDS011;24897;53.514;10.482;2023-04-01T14:55:53;62.03;;;55.73;;
23682;SDS011;24897;53.514;10.482;2023-04-01T15:08:00;64.53;;;58.03;;
23682;SDS011;24897;53.514;10.482;2023-04-01T15:14:17;64.43;;;58.30;;
23682;SDS011;24897;53.514;10.482;2023-04-01T15:23:46;58.93;;;52.87;;
23682;SDS011;24897;53.514;10.482;2023-04-01T15:38:58;74.53;;;66.63;;
23682;SDS011;24897;53.514;10.482;2023-04-01T15:45:17;68.33;;;61.00;;
23682;SDS011;24897;53.514;10.482;2023-04-01T15:54:32;65.03;;;58.33;;
23682;SDS011;24897;53.514;10.482;2023-04-01T16:00:28;64.33;;;57.63;;
23682;SDS011;24897;53.514;10.482;2023-04-01T16:07:09;67.90;;;60.80;;
23682;SDS011;24897;53.514;10.482;2023-04-01T16:10:06;68.07;;;60.93;;
23682;SDS011;24897;53.514;10.482;2023-04-01T16:22:49;61.27;;;54.83;;
23682;SDS011;24897;53.514;10.482;2023-04-01T16:25:49;61.87;;;55.07;;
23682;SDS011;24897;53.514;10.482;2023-04-01T16:31:38;65.87;;;59.07;;
23682;SDS011;24897;53.514;10.482;2023-04-01T16:34:38;68.80;;;61.37;;
23682;SDS011;24897;53.514;10.482;2023-04-01T16:37:29;64.97;;;58.07;;
23682;SDS011;24897;53.514;10.482;2023-04-01T16:43:46;65.77;;;58.77;;
23682;SDS011;24897;53.514;10.482;2023-04-01T16:46:39;65.20;;;56.40;;
23682;SDS011;24897;53.514;10.482;2023-04-01T16:49:32;61.23;;;54.33;;
23682;SDS011;24897;53.514;10.482;2023-04-01T16:52:43;60.30;;;54.00;;
23682;SDS011;24897;53.514;10.482;2023-04-01T17:04:58;51.77;;;46.17;;
23682;SDS011;24897;53.514;10.482;2023-04-01T17:10:49;50.17;;;44.53;;
23682;SDS011;24897;53.514;10.482;2023-04-01T17:38:04;44.53;;;39.43;;
23682;SDS011;24897;53.514;10.482;2023-04-01T17:43:57;42.00;;;37.90;;
23682;SDS011;24897;53.514;10.482;2023-04-01T17:49:55;41.70;;;37.60;;
23682;SDS011;24897;53.514;10.482;2023-04-01T17:52:45;41.30;;;37.23;;
23682;SDS011;24897;53.514;10.482;2023-04-01T17:55:43;39.73;;;35.83;;
23682;SDS011;24897;53.514;10.482;2023-04-01T18:05:01;41.00;;;36.90;;
23682;SDS011;24897;53.514;10.482;2023-04-01T18:11:09;41.70;;;37.60;;
23682;SDS011;24897;53.514;10.482;2023-04-01T18:14:21;40.17;;;35.60;;
23682;SDS011;24897;53.514;10.482;2023-04-01T18:26:32;41.27;;;37.13;;
23682;SDS011;24897;53.514;10.482;2023-04-01T18:35:50;37.97;;;34.30;;
23682;SDS011;24897;53.514;10.482;2023-04-01T18:38:45;39.53;;;35.83;;
23682;SDS011;24897;53.514;10.482;2023-04-01T18:44:43;37.50;;;33.90;;
23682;SDS011;24897;53.514;10.482;2023-04-01T18:47:40;39.00;;;35.37;;
23682;SDS011;24897;53.514;10.482;2023-04-01T18:50:55;39.70;;;35.80;;
23682;SDS011;24897;53.514;10.482;2023-04-01T18:53:47;40.50;;;36.60;;
23682;SDS011;24897;53.514;10.482;2023-04-01T18:56:41;39.17;;;35.37;;
23682;SDS011;24897;53.514;10.482;2023-04-01T18:59:39;40.00;;;36.10;;
23682;SDS011;24897;53.514;10.482;2023-04-01T19:02:40;39.77;;;35.90;;
23682;SDS011;24897;53.514;10.482;2023-04-01T19:05:42;40.93;;;36.70;;
23682;SDS011;24897;53.514;10.482;2023-04-01T19:17:31;38.70;;;34.70;;
23682;SDS011;24897;53.514;10.482;2023-04-01T19:26:40;33.87;;;30.80;;
23682;SDS011;24897;53.514;10.482;2023-04-01T19:36:03;33.27;;;30.20;;
23682;SDS011;24897;53.514;10.482;2023-04-01T19:38:57;33.83;;;30.50;;
23682;SDS011;24897;53.514;10.482;2023-04-01T19:45:24;34.00;;;30.90;;
23682;SDS011;24897;53.514;10.482;2023-04-01T20:01:00;34.33;;;31.13;;
23682;SDS011;24897;53.514;10.482;2023-04-01T20:03:57;34.60;;;31.53;;
23682;SDS011;24897;53.514;10.482;2023-04-01T20:15:43;36.10;;;32.60;;
23682;SDS011;24897;53.514;10.482;2023-04-01T20:18:35;35.37;;;32.07;;
23682;SDS011;24897;53.514;10.482;2023-04-01T20:21:41;36.77;;;32.80;;
23682;SDS011;24897;53.514;10.482;2023-04-01T20:46:10;32.73;;;29.60;;
23682;SDS011;24897;53.514;10.482;2023-04-01T20:58:03;35.77;;;32.50;;
23682;SDS011;24897;53.514;10.482;2023-04-01T21:07:15;37.57;;;34.00;;
23682;SDS011;24897;53.514;10.482;2023-04-01T22:00:22;37.83;;;34.53;;
23682;SDS011;24897;53.514;10.482;2023-04-01T22:09:32;38.83;;;35.00;;
23682;SDS011;24897;53.514;10.482;2023-04-01T22:27:43;39.60;;;36.00;;
23682;SDS011;24897;53.514;10.482;2023-04-01T22:33:29;39.33;;;35.73;;
23682;SDS011;24897;53.514;10.482;2023-04-01T22:42:39;32.57;;;29.23;;
23682;SDS011;24897;53.514;10.482;2023-04-01T22:48:49;31.37;;;28.40;;
23682;SDS011;24897;53.514;10.482;2023-04-01T22:51:45;32.10;;;28.80;;
23682;SDS011;24897;53.514;10.482;2023-04-01T22:57:44;33.30;;;30.00;;
23682;SDS011;24897;53.514;10.482;2023-04-01T23:00:52;32.70;;;29.50;;
23682;SDS011;24897;53.514;10.482;2023-04-01T23:03:42;32.80;;;29.60;;
23682;SDS011;24897;53.514;10.482;2023-04-01T23:06:33;32.77;;;29.37;;
23682;SDS011;24897;53.514;10.482;2023-04-01T23:09:33;32.53;;;29.33;;
23682;SDS011;24897;53.514;10.482;2023-04-01T23:12:20;33.50;;;30.30;;
23682;SDS011;24897;53.514;10.482;2023-04-01T23:15:05;33.07;;;29.67;;
23682;SDS011;24897;53.514;10.482;2023-04-01T23:17:59;32.70;;;29.60;;
23682;SDS011;24897;53.514;10.482;2023-04-01T23:33:26;32.33;;;29.17;;
23682;SDS011;24897;53.514;10.482;2023-04-01T23:36:13;32.10;;;29.10;;
23682;SDS011;24897;53.514;10.482;2023-04-01T23:39:00;32.30;;;29.00;;
23682;SDS011;24897;53.514;10.482;2023-04-01T23:41:48;31.67;;;28.77;;
23682;SDS011;24897;53.514;10.482;2023-04-01T23:44:35;32.17;;;29.10;;
23682;SDS011;24897;53.514;10.482;2023-04-01T23:47:21;32.47;;;29.10;;
23682;SDS011;24897;53.514;10.482;2023-04-01T23:50:10;32.70;;;29.33;;
23682;SDS011;24897;53.514;10.482;2023-04-01T23:53:08;32.37;;;29.13;;
23682;SDS011;24897;53.514;10.482;2023-04-01T23:56:06;32.30;;;29.20;;
23682;SDS011;24897;53.514;10.482;2023-04-01T23:58:51;32.03;;;28.90;;
